createdAt,value
2023-03-07T00:02:01.877Z,38.63
2023-03-07T00:04:28.883Z,40.83
2023-03-07T00:06:56.705Z,38.25
2023-03-07T00:09:23.724Z,34.55
2023-03-07T00:11:50.781Z,37.95
2023-03-07T00:14:17.854Z,42.30
2023-03-07T00:16:45.134Z,42.70
2023-03-07T00:19:12.151Z,42.97
2023-03-07T00:21:39.225Z,42.65
2023-03-07T00:24:06.599Z,38.80
2023-03-07T00:26:39.320Z,33.88
2023-03-07T00:29:08.127Z,40.38
2023-03-07T00:31:36.032Z,35.92
2023-03-07T00:34:03.759Z,42.10
2023-03-07T00:36:31.071Z,41.42
2023-03-07T00:38:58.973Z,44.47
2023-03-07T00:41:27.895Z,37.67
2023-03-07T00:43:55.894Z,39.15
2023-03-07T00:46:24.604Z,45.08
2023-03-07T00:48:52.117Z,34.60
2023-03-07T00:51:20.265Z,39.35
2023-03-07T00:53:47.376Z,37.28
2023-03-07T00:56:23.240Z,37.58
2023-03-07T00:58:51.413Z,42.20
2023-03-07T01:01:24.865Z,36.85
2023-03-07T01:03:56.087Z,37.30
2023-03-07T01:06:27.122Z,32.25
2023-03-07T01:08:58.554Z,35.53
2023-03-07T01:11:28.184Z,33.25
2023-03-07T01:13:57.465Z,37.53
2023-03-07T01:16:27.747Z,35.25
2023-03-07T01:18:57.773Z,34.42
2023-03-07T01:21:28.394Z,31.10
2023-03-07T01:23:56.855Z,34.78
2023-03-07T01:26:27.799Z,37.17
2023-03-07T01:28:57.894Z,30.25
2023-03-07T01:31:26.112Z,34.25
2023-03-07T01:33:54.040Z,34.40
2023-03-07T01:36:30.514Z,35.00
2023-03-07T01:39:07.200Z,29.50
2023-03-07T01:41:38.040Z,27.02
2023-03-07T01:44:22.916Z,33.30
2023-03-07T01:46:55.424Z,27.02
2023-03-07T01:49:33.787Z,28.33
2023-03-07T01:52:13.333Z,25.38
2023-03-07T01:54:52.486Z,30.52
2023-03-07T01:57:29.696Z,29.25
2023-03-07T02:00:00.044Z,33.35
2023-03-07T02:02:29.236Z,25.05
2023-03-07T02:05:22.074Z,26.20
2023-03-07T02:10:22.577Z,29.40
2023-03-07T02:12:51.745Z,23.60
2023-03-07T02:15:19.027Z,26.15
2023-03-07T02:17:46.517Z,24.30
2023-03-07T02:20:47.314Z,25.15
2023-03-07T02:23:34.893Z,27.17
2023-03-07T02:26:35.207Z,21.85
2023-03-07T02:29:02.811Z,23.60
2023-03-07T02:31:31.501Z,28.48
2023-03-07T02:33:58.953Z,23.40
2023-03-07T02:36:32.332Z,23.63
2023-03-07T02:39:09.451Z,34.10
2023-03-07T02:41:38.162Z,23.00
2023-03-07T02:44:11.768Z,21.90
2023-03-07T02:46:39.174Z,22.90
2023-03-07T02:49:06.208Z,24.73
2023-03-07T02:51:33.739Z,18.60
2023-03-07T02:54:00.814Z,20.50
2023-03-07T02:56:27.884Z,19.80
2023-03-07T02:58:55.060Z,21.77
2023-03-07T03:01:22.449Z,17.73
2023-03-07T03:03:49.652Z,17.02
2023-03-07T03:06:16.659Z,22.25
2023-03-07T03:08:43.737Z,18.70
2023-03-07T03:11:10.742Z,15.90
2023-03-07T03:13:39.068Z,18.60
2023-03-07T03:16:07.315Z,18.08
2023-03-07T03:18:34.493Z,17.33
2023-03-07T03:21:07.462Z,17.50
2023-03-07T03:23:34.434Z,20.45
2023-03-07T03:26:07.464Z,16.17
2023-03-07T03:28:35.943Z,15.82
2023-03-07T03:31:05.908Z,16.27
2023-03-07T03:33:33.368Z,20.20
2023-03-07T03:36:07.259Z,16.15
2023-03-07T03:38:34.905Z,18.23
2023-03-07T03:41:11.859Z,16.58
2023-03-07T03:43:39.715Z,14.70
2023-03-07T03:46:06.968Z,18.80
2023-03-07T03:48:34.057Z,13.65
2023-03-07T03:51:05.478Z,13.90
2023-03-07T03:53:34.707Z,17.35
2023-03-07T03:56:12.565Z,16.02
2023-03-07T03:58:40.793Z,15.48
2023-03-07T04:01:11.140Z,13.52
2023-03-07T04:03:44.100Z,17.25
2023-03-07T04:06:13.802Z,15.60
2023-03-07T04:08:41.493Z,14.45
2023-03-07T04:11:08.521Z,14.20
2023-03-07T04:13:36.472Z,14.63
2023-03-07T04:16:04.598Z,18.88
2023-03-07T04:18:32.100Z,14.73
2023-03-07T04:20:59.270Z,16.70
2023-03-07T04:23:27.821Z,14.82
2023-03-07T04:25:59.981Z,16.65
2023-03-07T04:28:46.294Z,16.10
2023-03-07T04:31:23.182Z,15.10
2023-03-07T04:33:51.737Z,17.77
2023-03-07T04:36:19.713Z,15.52
2023-03-07T04:38:48.508Z,15.25
2023-03-07T04:41:21.753Z,18.33
2023-03-07T04:43:51.620Z,17.20
2023-03-07T04:46:19.475Z,15.80
2023-03-07T04:48:47.084Z,16.92
2023-03-07T04:51:14.285Z,19.65
2023-03-07T04:53:42.017Z,15.30
2023-03-07T04:56:10.273Z,14.93
2023-03-07T04:58:38.385Z,19.95
2023-03-07T05:01:05.987Z,14.48
2023-03-07T05:03:34.071Z,13.60
2023-03-07T05:06:10.550Z,13.20
2023-03-07T05:08:37.780Z,11.70
2023-03-07T05:11:05.123Z,17.58
2023-03-07T05:13:33.478Z,15.95
2023-03-07T05:16:00.966Z,15.50
2023-03-07T05:18:29.511Z,13.93
2023-03-07T05:20:58.429Z,13.35
2023-03-07T05:23:25.711Z,13.60
2023-03-07T05:25:54.197Z,12.65
2023-03-07T05:28:21.423Z,16.60
2023-03-07T05:30:48.657Z,12.27
2023-03-07T05:33:15.813Z,16.30
2023-03-07T05:35:43.471Z,15.50
2023-03-07T05:38:12.346Z,13.35
2023-03-07T05:40:40.153Z,14.25
2023-03-07T05:43:08.338Z,13.57
2023-03-07T05:45:35.569Z,13.52
2023-03-07T05:48:02.610Z,15.00
2023-03-07T05:50:31.167Z,18.60
2023-03-07T05:52:59.221Z,16.40
2023-03-07T05:55:29.844Z,13.18
2023-03-07T05:57:56.951Z,16.77
2023-03-07T06:00:24.161Z,15.50
2023-03-07T06:03:02.730Z,15.07
2023-03-07T06:05:30.736Z,19.20
2023-03-07T06:07:58.095Z,17.67
2023-03-07T06:10:25.744Z,20.75
2023-03-07T06:12:54.056Z,15.57
2023-03-07T06:15:24.269Z,19.92
2023-03-07T06:17:54.920Z,20.13
2023-03-07T06:20:22.046Z,25.88
2023-03-07T06:22:49.700Z,22.02
2023-03-07T06:25:16.988Z,20.48
2023-03-07T06:27:44.402Z,20.25
2023-03-07T06:30:12.613Z,19.02
2023-03-07T06:32:40.534Z,23.40
2023-03-07T06:35:08.648Z,27.92
2023-03-07T06:37:36.417Z,23.58
2023-03-07T06:40:06.306Z,26.00
2023-03-07T06:42:35.584Z,25.77
2023-03-07T06:45:03.461Z,23.42
2023-03-07T06:47:30.664Z,24.33
2023-03-07T06:49:57.720Z,24.13
2023-03-07T06:52:24.806Z,27.20
2023-03-07T06:54:52.420Z,24.30
2023-03-07T06:57:19.506Z,27.10
2023-03-07T06:59:46.550Z,23.48
2023-03-07T07:02:15.244Z,20.85
2023-03-07T07:04:42.318Z,24.77
2023-03-07T07:07:09.357Z,24.52
2023-03-07T07:09:36.630Z,23.90
2023-03-07T07:12:05.860Z,20.33
2023-03-07T07:14:34.641Z,25.70
2023-03-07T07:17:02.208Z,22.48
2023-03-07T07:19:29.508Z,27.20
2023-03-07T07:21:58.267Z,24.80
2023-03-07T07:24:25.484Z,24.67
2023-03-07T07:26:55.854Z,26.30
2023-03-07T07:29:23.351Z,25.33
2023-03-07T07:31:51.749Z,23.98
2023-03-07T07:34:19.998Z,24.00
2023-03-07T07:36:47.896Z,24.85
2023-03-07T07:39:15.989Z,27.40
2023-03-07T07:41:45.269Z,25.42
2023-03-07T07:44:13.730Z,25.48
2023-03-07T07:46:52.789Z,23.38
2023-03-07T07:49:19.775Z,24.08
2023-03-07T07:51:46.956Z,26.33
2023-03-07T07:54:14.598Z,23.10
2023-03-07T07:56:41.623Z,25.83
2023-03-07T07:59:08.721Z,26.30
2023-03-07T08:01:35.868Z,28.42
2023-03-07T08:04:02.926Z,26.05
2023-03-07T08:06:30.761Z,23.27
2023-03-07T08:08:59.948Z,26.45
2023-03-07T08:11:27.171Z,20.25
2023-03-07T08:13:54.258Z,25.73
2023-03-07T08:16:22.727Z,21.70
2023-03-07T08:18:55.867Z,18.63
2023-03-07T08:21:24.785Z,24.55
2023-03-07T08:23:53.975Z,24.52
2023-03-07T08:26:21.408Z,27.33
2023-03-07T08:28:48.467Z,29.52
2023-03-07T08:31:23.354Z,30.73
2023-03-07T08:33:51.158Z,27.50
2023-03-07T08:36:18.361Z,25.20
2023-03-07T08:38:51.482Z,21.42
2023-03-07T08:41:20.092Z,21.77
2023-03-07T08:43:47.477Z,20.10
2023-03-07T08:46:14.703Z,26.00
2023-03-07T08:48:41.883Z,26.73
2023-03-07T08:51:11.804Z,20.85
2023-03-07T08:53:39.061Z,18.85
2023-03-07T08:56:07.756Z,20.63
2023-03-07T08:58:35.065Z,20.42
2023-03-07T09:01:03.649Z,20.52
2023-03-07T09:03:30.819Z,22.95
2023-03-07T09:05:57.912Z,22.30
2023-03-07T09:08:24.948Z,22.88
2023-03-07T09:10:52.085Z,23.80
2023-03-07T09:13:19.168Z,21.92
2023-03-07T09:15:46.164Z,26.58
2023-03-07T09:18:13.245Z,24.65
2023-03-07T09:20:40.596Z,18.65
2023-03-07T09:23:08.337Z,21.92
2023-03-07T09:25:36.908Z,19.98
2023-03-07T09:28:04.222Z,24.00
2023-03-07T09:30:31.225Z,21.55
2023-03-07T09:32:58.528Z,31.80
2023-03-07T09:35:25.807Z,23.90
2023-03-07T09:37:52.857Z,21.25
2023-03-07T09:40:23.752Z,19.67
2023-03-07T09:43:16.421Z,20.95
2023-03-07T09:46:16.712Z,18.92
2023-03-07T09:48:56.826Z,21.58
2023-03-07T09:51:40.787Z,18.90
2023-03-07T09:54:20.550Z,16.50
2023-03-07T09:56:51.796Z,19.17
2023-03-07T09:59:41.758Z,18.15
2023-03-07T10:02:29.652Z,17.88
2023-03-07T10:05:25.212Z,16.48
2023-03-07T10:07:53.219Z,20.20
2023-03-07T10:10:39.721Z,15.20
2023-03-07T10:13:21.202Z,27.10
2023-03-07T10:15:57.793Z,17.50
2023-03-07T10:18:48.433Z,17.42
2023-03-07T10:21:49.525Z,15.85
2023-03-07T10:24:43.445Z,16.23
2023-03-07T10:27:13.107Z,16.73
2023-03-07T10:29:49.210Z,13.38
2023-03-07T10:32:37.394Z,16.02
2023-03-07T10:35:22.579Z,17.30
2023-03-07T10:38:26.965Z,19.05
2023-03-07T10:41:01.308Z,17.05
2023-03-07T10:43:32.066Z,16.42
2023-03-07T10:46:22.354Z,14.70
2023-03-07T10:49:08.772Z,11.63
2023-03-07T10:51:56.055Z,15.55
2023-03-07T10:54:35.301Z,12.15
2023-03-07T10:57:05.462Z,11.88
2023-03-07T10:59:33.035Z,17.30
2023-03-07T11:02:02.489Z,11.93
2023-03-07T11:04:43.364Z,14.40
2023-03-07T11:07:27.881Z,13.55
2023-03-07T11:09:57.089Z,12.70
2023-03-07T11:12:26.655Z,10.98
2023-03-07T11:15:09.625Z,12.07
2023-03-07T11:17:44.943Z,15.30
2023-03-07T11:20:30.753Z,11.88
2023-03-07T11:23:30.559Z,14.80
2023-03-07T11:26:21.595Z,11.80
2023-03-07T11:29:13.066Z,9.63
2023-03-07T11:31:47.588Z,11.00
2023-03-07T11:34:36.655Z,13.35
2023-03-07T11:37:34.633Z,10.80
2023-03-07T11:40:43.101Z,12.50
2023-03-07T11:43:10.088Z,15.55
2023-03-07T11:45:49.659Z,10.90
2023-03-07T11:48:51.791Z,12.02
2023-03-07T11:51:37.111Z,16.05
2023-03-07T11:54:22.555Z,10.70
2023-03-07T11:56:59.842Z,10.73
2023-03-07T11:59:44.125Z,35.33
2023-03-07T12:02:40.284Z,11.90
2023-03-07T12:05:36.477Z,11.68
2023-03-07T12:08:18.659Z,10.38
2023-03-07T12:11:19.587Z,12.02
2023-03-07T12:14:07.861Z,11.48
2023-03-07T12:16:45.910Z,11.48
2023-03-07T12:19:27.964Z,23.08
2023-03-07T12:22:33.665Z,12.13
2023-03-07T12:25:24.715Z,13.88
2023-03-07T12:28:04.967Z,12.07
2023-03-07T12:31:07.218Z,14.13
2023-03-07T12:33:58.620Z,11.57
2023-03-07T12:36:43.602Z,9.73
2023-03-07T12:39:20.843Z,12.88
2023-03-07T12:42:25.330Z,9.05
2023-03-07T12:44:58.696Z,8.25
2023-03-07T12:47:50.325Z,8.98
2023-03-07T12:50:28.778Z,7.40
2023-03-07T12:53:16.261Z,9.63
2023-03-07T12:55:48.247Z,8.80
2023-03-07T12:58:25.067Z,10.02
2023-03-07T13:00:59.373Z,11.35
2023-03-07T13:03:53.728Z,16.58
2023-03-07T13:06:23.907Z,11.70
2023-03-07T13:08:57.891Z,12.40
2023-03-07T13:11:28.261Z,11.00
2023-03-07T13:14:03.148Z,16.17
2023-03-07T13:16:42.389Z,10.48
2023-03-07T13:19:34.453Z,10.40
2023-03-07T13:22:16.809Z,8.33
2023-03-07T13:24:45.402Z,10.40
2023-03-07T13:27:18.444Z,8.98
2023-03-07T13:30:08.296Z,7.90
2023-03-07T13:32:50.622Z,8.73
2023-03-07T13:35:33.319Z,7.55
2023-03-07T13:38:03.631Z,7.25
2023-03-07T13:40:33.392Z,9.82
2023-03-07T13:43:02.049Z,9.32
2023-03-07T13:45:38.994Z,6.53
2023-03-07T13:48:12.494Z,7.13
2023-03-07T13:51:00.021Z,15.57
2023-03-07T13:53:48.142Z,10.38
2023-03-07T13:56:15.222Z,10.70
2023-03-07T13:59:01.556Z,6.60
2023-03-07T14:01:46.683Z,10.23
2023-03-07T14:04:38.946Z,12.65
2023-03-07T14:07:21.620Z,7.15
2023-03-07T14:09:55.617Z,9.80
2023-03-07T14:12:41.429Z,10.27
2023-03-07T14:15:42.854Z,7.40
2023-03-07T14:18:47.424Z,16.08
2023-03-07T14:21:43.790Z,6.85
2023-03-07T14:24:31.374Z,8.65
2023-03-07T14:27:03.354Z,11.07
2023-03-07T14:29:30.922Z,12.95
2023-03-07T14:32:00.712Z,10.73
2023-03-07T14:34:29.668Z,8.98
2023-03-07T14:36:59.985Z,11.57
2023-03-07T14:39:59.245Z,9.93
2023-03-07T14:42:49.460Z,16.58
2023-03-07T14:45:35.920Z,15.55
2023-03-07T14:48:15.011Z,14.52
2023-03-07T14:50:44.172Z,13.05
2023-03-07T14:53:19.054Z,14.27
2023-03-07T14:55:48.948Z,14.88
2023-03-07T14:58:29.167Z,27.85
2023-03-07T15:01:01.132Z,25.48
2023-03-07T15:03:29.210Z,13.48
2023-03-07T15:06:01.598Z,14.05
2023-03-07T15:08:35.127Z,9.32
2023-03-07T15:11:16.591Z,11.15
2023-03-07T15:13:52.142Z,15.98
2023-03-07T15:16:44.655Z,15.48
2023-03-07T15:19:14.721Z,9.80
2023-03-07T15:21:48.210Z,12.63
2023-03-07T15:24:26.101Z,9.07
2023-03-07T15:26:55.535Z,8.55
2023-03-07T15:29:25.644Z,10.13
2023-03-07T15:32:06.427Z,17.40
2023-03-07T15:34:35.780Z,19.42
2023-03-07T15:37:22.845Z,13.30
2023-03-07T15:40:01.300Z,18.10
2023-03-07T15:42:29.478Z,13.65
2023-03-07T15:44:59.119Z,12.60
2023-03-07T15:47:28.608Z,8.00
2023-03-07T15:50:03.476Z,13.55
2023-03-07T15:52:39.710Z,11.48
2023-03-07T15:55:18.034Z,18.50
2023-03-07T15:57:57.155Z,15.57
2023-03-07T16:00:29.738Z,21.67
2023-03-07T16:05:43.930Z,7.00
2023-03-07T16:08:16.458Z,7.63
2023-03-07T16:13:18.652Z,7.05
2023-03-07T16:15:45.809Z,4.75
2023-03-07T16:18:24.303Z,4.30
2023-03-07T16:20:51.481Z,4.95
2023-03-07T16:23:18.482Z,4.60
2023-03-07T16:25:45.610Z,5.22
2023-03-07T16:28:12.876Z,6.65
2023-03-07T16:30:44.016Z,6.28
2023-03-07T16:33:13.090Z,3.95
2023-03-07T16:35:40.966Z,4.57
2023-03-07T16:38:08.618Z,2.95
2023-03-07T16:40:41.375Z,4.38
2023-03-07T16:43:32.657Z,6.18
2023-03-07T16:46:11.318Z,3.47
2023-03-07T16:48:38.374Z,5.35
2023-03-07T16:51:05.951Z,3.92
2023-03-07T16:53:33.212Z,4.03
2023-03-07T16:56:00.361Z,5.20
2023-03-07T16:58:33.481Z,7.05
2023-03-07T17:05:36.396Z,7.65
2023-03-07T17:08:03.617Z,5.28
2023-03-07T17:10:30.806Z,4.75
2023-03-07T17:13:00.187Z,5.45
2023-03-07T17:15:30.945Z,7.50
2023-03-07T17:17:59.478Z,8.85
2023-03-07T17:20:27.330Z,5.97
2023-03-07T17:22:54.754Z,5.70
2023-03-07T17:25:22.638Z,7.10
2023-03-07T17:27:54.383Z,6.90
2023-03-07T17:30:24.100Z,7.30
2023-03-07T17:32:51.393Z,3.90
2023-03-07T17:35:18.960Z,7.05
2023-03-07T17:37:47.907Z,5.13
2023-03-07T17:40:15.263Z,7.53
2023-03-07T17:42:44.173Z,6.03
2023-03-07T17:45:13.798Z,7.30
2023-03-07T17:47:42.223Z,5.90
2023-03-07T17:50:10.613Z,8.43
2023-03-07T17:52:37.653Z,10.00
2023-03-07T17:55:09.578Z,5.93
2023-03-07T17:57:36.888Z,8.25
2023-03-07T18:00:13.053Z,5.50
2023-03-07T18:02:43.601Z,10.45
2023-03-07T18:05:13.017Z,7.85
2023-03-07T18:07:41.291Z,6.85
2023-03-07T18:10:10.822Z,7.75
2023-03-07T18:12:39.247Z,8.52
2023-03-07T18:15:11.743Z,12.32
2023-03-07T18:17:47.715Z,8.88
2023-03-07T18:20:21.576Z,11.50
2023-03-07T18:22:49.144Z,5.05
2023-03-07T18:25:17.471Z,7.22
2023-03-07T18:27:45.013Z,5.20
2023-03-07T18:34:00.795Z,7.50
2023-03-07T18:36:27.812Z,7.07
2023-03-07T18:38:54.796Z,6.55
2023-03-07T18:41:23.955Z,4.90
2023-03-07T18:43:53.230Z,4.65
2023-03-07T18:46:22.446Z,4.07
2023-03-07T18:48:50.217Z,4.35
2023-03-07T18:51:24.713Z,6.55
2023-03-07T18:53:56.586Z,5.40
2023-03-07T18:56:24.607Z,7.78
2023-03-07T18:58:57.090Z,6.18
2023-03-07T19:01:51.327Z,7.20
2023-03-07T19:04:18.696Z,5.75
2023-03-07T19:06:47.411Z,5.78
2023-03-07T19:09:16.902Z,4.95
2023-03-07T19:11:44.910Z,5.72
2023-03-07T19:14:12.668Z,6.03
2023-03-07T19:16:40.304Z,5.28
2023-03-07T19:19:07.350Z,7.03
2023-03-07T19:21:34.498Z,5.53
2023-03-07T19:24:04.922Z,5.65
2023-03-07T19:26:32.023Z,8.18
2023-03-07T19:28:59.078Z,5.88
2023-03-07T19:31:31.194Z,13.60
2023-03-07T19:33:58.465Z,5.97
2023-03-07T19:36:27.798Z,4.93
2023-03-07T19:38:57.589Z,10.48
2023-03-07T19:41:26.559Z,7.85
2023-03-07T19:43:55.405Z,5.05
2023-03-07T19:46:23.112Z,7.90
2023-03-07T19:48:50.226Z,7.80
2023-03-07T19:51:22.564Z,4.57
2023-03-07T19:53:50.386Z,5.57
2023-03-07T19:56:20.685Z,7.03
2023-03-07T19:58:47.932Z,6.63
2023-03-07T20:01:19.932Z,6.10
2023-03-07T20:03:47.700Z,8.85
2023-03-07T20:06:19.753Z,5.93
2023-03-07T20:08:48.316Z,7.03
2023-03-07T20:11:32.978Z,8.88
2023-03-07T20:14:02.223Z,8.75
2023-03-07T20:16:29.712Z,7.82
2023-03-07T20:18:59.226Z,11.52
2023-03-07T20:21:28.493Z,9.82
2023-03-07T20:23:59.585Z,8.32
2023-03-07T20:49:30.342Z,6.22
2023-03-07T20:51:57.396Z,8.38
2023-03-07T20:54:24.668Z,7.63
2023-03-07T20:56:52.025Z,9.52
2023-03-07T20:59:19.251Z,7.20
2023-03-07T21:01:46.563Z,9.88
2023-03-07T21:04:17.415Z,8.15
2023-03-07T21:06:45.441Z,7.18
2023-03-07T21:09:14.197Z,6.50
2023-03-07T21:11:46.323Z,6.05
2023-03-07T21:14:14.932Z,7.07
2023-03-07T21:16:43.679Z,5.85
2023-03-07T21:19:11.796Z,5.07
2023-03-07T21:21:39.249Z,3.60
2023-03-07T21:24:06.750Z,4.78
2023-03-07T21:26:38.591Z,5.53
2023-03-07T21:29:05.702Z,6.47
2023-03-07T21:35:51.105Z,8.02
2023-03-07T21:38:18.198Z,8.10
2023-03-07T21:40:45.312Z,7.18
2023-03-07T21:43:12.725Z,5.07
2023-03-07T21:45:46.402Z,4.47
2023-03-07T21:48:13.805Z,5.07
2023-03-07T21:50:44.792Z,4.28
2023-03-07T21:53:12.354Z,5.15
2023-03-07T21:55:40.041Z,5.15
2023-03-07T21:58:07.127Z,3.92
2023-03-07T22:00:34.210Z,4.97
2023-03-07T22:03:01.274Z,5.28
2023-03-07T22:05:28.248Z,6.38
2023-03-07T22:07:55.234Z,4.53
2023-03-07T22:10:22.313Z,4.40
2023-03-07T22:12:49.301Z,4.78
2023-03-07T22:15:16.404Z,4.75
2023-03-07T22:17:43.402Z,5.07
2023-03-07T22:20:11.032Z,7.05
2023-03-07T22:22:38.121Z,3.22
2023-03-07T22:25:05.467Z,4.43
2023-03-07T22:27:32.571Z,4.85
2023-03-07T22:29:59.830Z,7.57
2023-03-07T22:32:26.894Z,11.45
2023-03-07T22:34:53.935Z,6.07
2023-03-07T22:37:20.963Z,3.75
2023-03-07T22:39:48.036Z,4.65
2023-03-07T22:42:15.153Z,5.82
2023-03-07T22:44:42.308Z,5.93
2023-03-07T22:47:09.533Z,6.78
2023-03-07T22:49:36.514Z,7.15
2023-03-07T22:52:03.716Z,3.90
2023-03-07T22:54:30.821Z,5.35
2023-03-07T22:56:57.814Z,6.25
2023-03-07T22:59:24.915Z,5.85
2023-03-07T23:01:52.164Z,5.40
2023-03-07T23:04:19.183Z,5.00
2023-03-07T23:06:46.220Z,7.50
2023-03-07T23:09:14.406Z,3.42
2023-03-07T23:11:43.686Z,4.10
2023-03-07T23:14:10.926Z,3.65
2023-03-07T23:16:39.241Z,3.92
2023-03-07T23:19:06.313Z,3.90
2023-03-07T23:21:34.104Z,6.70
2023-03-07T23:24:03.079Z,6.20
2023-03-07T23:26:32.969Z,5.43
2023-03-07T23:29:00.653Z,5.03
2023-03-07T23:31:33.019Z,4.70
2023-03-07T23:36:30.661Z,5.78
2023-03-07T23:38:58.701Z,6.30
2023-03-07T23:41:29.871Z,6.30
2023-03-07T23:44:06.422Z,8.27
2023-03-07T23:46:33.770Z,5.95
2023-03-07T23:49:00.966Z,7.57
2023-03-07T23:51:28.087Z,8.00
2023-03-07T23:53:55.476Z,6.28
2023-03-07T23:56:22.760Z,9.75
2023-03-07T23:58:51.394Z,4.55
